Time;durP1;ratioP1;P1;durP2;ratioP2;P2;SDS_P1;SDS_P2;PMS_P1;PMS_P2;Temp;Humidity;BMP_temperature;BMP_pressure;BME280_temperature;BME280_humidity;BME280_pressure;Samples;Min_cycle;Max_cycle;Signal;HPM_P1;HPM_P2
2024/02/15 00:01:04;;;;;;;;;;;;;;;7.27;89.32;96964.98;108060;1289;22533;-84
2024/02/15 00:03:40;;;;;;;;;;;;;;;7.24;89.52;96969.88;108078;1289;22521;-84
2024/02/15 00:06:06;;;;;;;;;;;;;;;7.21;89.88;96967.08;107951;1287;23323;-84
2024/02/15 00:08:34;;;;;;;;;;;;;;;7.15;90.00;96967.98;107941;1289;22530;-84
2024/02/15 00:11:01;;;;;;;;;;;;;;;7.10;90.05;96973.41;107897;1289;22544;-84
2024/02/15 00:13:27;;;;;;;;;;;;;;;7.06;90.34;96973.80;107943;1289;22511;-84
2024/02/15 00:15:54;;;;;;;;;;;;;;;7.05;90.50;96975.38;108070;1269;22536;-84
2024/02/15 00:18:21;;;;;;;;;;;;;;;7.04;90.88;96972.65;108117;1289;23605;-85
2024/02/15 00:20:48;;;;;;;;;;;;;;;7.02;91.21;96973.19;107986;1283;22518;-85
2024/02/15 00:23:16;;;;;;;;;;;;;;;6.98;91.39;96971.46;108065;1282;22557;-85
2024/02/15 00:25:44;;;;;;;;;;;;;;;7.00;91.60;96974.24;108046;1289;22521;-85
2024/02/15 00:28:12;;;;;;;;;;;;;;;7.03;91.75;96973.80;107812;1289;22757;-84
2024/02/15 00:30:39;;;;;;;;;;;;;;;7.05;91.80;96978.89;109497;1273;22409;-85
2024/02/15 00:33:07;;;;;;;;;;;;;;;7.06;91.88;96976.06;109336;1286;22409;-85
2024/02/15 00:35:33;;;;;;;;;;;;;;;7.09;92.12;96984.45;109473;1283;23026;-85
2024/02/15 00:38:00;;;;;;;;;;;;;;;7.11;92.00;96983.48;109458;1280;23085;-85
2024/02/15 00:40:27;;;;;;;;;;;;;;;7.12;92.06;96982.36;109365;1289;25103;-84
2024/02/15 00:42:53;;;;;;;;;;;;;;;7.14;92.04;96986.69;107906;1289;22523;-85
2024/02/15 00:45:21;;;;;;;;;;;;;;;7.17;91.88;96987.65;108037;1277;22566;-85
2024/02/15 00:47:50;;;;;;;;;;;;;;;7.19;91.87;96990.20;108016;1289;22528;-85
2024/02/15 00:50:17;;;;;;;;;;;;;;;7.22;91.74;96994.02;108024;1289;22520;-84
2024/02/15 00:52:43;;;;;;;;;;;;;;;7.24;91.74;96996.92;108012;1289;22569;-85
2024/02/15 00:55:10;;;;;;;;;;;;;;;7.24;91.90;96994.70;108019;1289;22528;-84
2024/02/15 00:57:36;;;;;;;;;;;;;;;7.24;91.70;96994.91;108019;1289;26435;-84
2024/02/15 01:00:07;;;;;;;;;;;;;;;7.24;91.75;96997.63;108071;1283;22577;-84
2024/02/15 01:02:33;;;;;;;;;;;;;;;7.24;91.83;97000.58;107979;1281;22567;-85
2024/02/15 01:05:00;;;;;;;;;;;;;;;7.25;91.78;97002.55;108071;1269;22522;-84
2024/02/15 01:07:27;;;;;;;;;;;;;;;7.25;91.85;97002.20;108086;1283;25377;-84
2024/02/15 01:09:53;;;;;;;;;;;;;;;7.25;91.89;97008.05;107952;1281;22514;-84
2024/02/15 01:12:20;;;;;;;;;;;;;;;7.25;91.90;97010.30;107920;1273;22514;-84
2024/02/15 01:14:47;;;;;;;;;;;;;;;7.26;91.73;97009.91;108085;1289;22516;-84
2024/02/15 01:17:15;;;;;;;;;;;;;;;7.25;91.81;97006.34;107931;1289;22535;-85
2024/02/15 01:19:42;;;;;;;;;;;;;;;7.25;91.74;97007.20;107975;1289;22528;-84
2024/02/15 01:22:08;;;;;;;;;;;;;;;7.24;91.85;97009.52;107925;1289;22518;-84
2024/02/15 01:24:35;;;;;;;;;;;;;;;7.23;91.90;97002.89;107888;1270;23280;-85
2024/02/15 01:27:01;;;;;;;;;;;;;;;7.22;91.86;97006.80;107804;1289;22514;-84
2024/02/15 01:29:28;;;;;;;;;;;;;;;7.22;91.91;97004.88;107826;1289;22529;-84
2024/02/15 01:31:55;;;;;;;;;;;;;;;7.22;91.89;97006.90;107917;1289;22560;-85
2024/02/15 01:34:22;;;;;;;;;;;;;;;7.23;91.85;97005.64;107923;1283;22702;-85
2024/02/15 01:36:50;;;;;;;;;;;;;;;7.25;91.73;97004.84;107920;1289;22505;-84
2024/02/15 01:39:16;;;;;;;;;;;;;;;7.25;91.85;97002.36;107916;1284;23320;-84
2024/02/15 01:41:47;;;;;;;;;;;;;;;7.27;91.76;96996.71;108090;1283;22546;-85
2024/02/15 01:44:15;;;;;;;;;;;;;;;7.27;91.68;96998.20;107928;1283;22556;-85
2024/02/15 01:46:43;;;;;;;;;;;;;;;7.27;91.79;96997.20;107920;1283;22521;-84
2024/02/15 01:49:09;;;;;;;;;;;;;;;7.29;91.82;96996.35;108177;1283;22526;-84
2024/02/15 01:51:37;;;;;;;;;;;;;;;7.29;91.72;96994.95;108094;1283;22522;-84
2024/02/15 01:54:03;;;;;;;;;;;;;;;7.30;91.61;96990.70;107913;1284;22518;-84
2024/02/15 01:56:30;;;;;;;;;;;;;;;7.32;91.85;96989.83;107869;1289;22565;-84
2024/02/15 01:58:57;;;;;;;;;;;;;;;7.34;91.79;96989.15;108103;1283;23380;-84
2024/02/15 02:01:23;;;;;;;;;;;;;;;7.35;91.59;96993.16;107996;1280;22529;-86
2024/02/15 02:03:50;;;;;;;;;;;;;;;7.36;91.64;96992.17;107916;1287;22544;-85
2024/02/15 02:06:16;;;;;;;;;;;;;;;7.37;91.72;96986.23;107846;1289;22539;-85
2024/02/15 02:08:43;;;;;;;;;;;;;;;7.39;91.67;96983.80;107869;1277;23433;-86
2024/02/15 02:11:09;;;;;;;;;;;;;;;7.39;91.82;96979.44;107922;1289;22569;-86
2024/02/15 02:13:36;;;;;;;;;;;;;;;7.36;91.94;96976.34;107897;1284;22514;-85
2024/02/15 02:16:02;;;;;;;;;;;;;;;7.33;91.89;96975.41;107875;1284;22542;-86
2024/02/15 02:18:29;;;;;;;;;;;;;;;7.34;92.22;96975.52;108058;1289;22565;-86
2024/02/15 02:20:55;;;;;;;;;;;;;;;7.33;92.27;96971.50;107827;1289;25215;-85
2024/02/15 02:23:23;;;;;;;;;;;;;;;7.33;92.45;96969.91;107982;1289;22541;-86
2024/02/15 02:25:49;;;;;;;;;;;;;;;7.35;92.53;96968.38;107958;1289;22554;-85
2024/02/15 02:28:16;;;;;;;;;;;;;;;7.34;92.79;96960.90;108060;1289;22521;-85
2024/02/15 02:30:45;;;;;;;;;;;;;;;7.34;92.74;96963.92;108112;1289;22533;-85
2024/02/15 02:33:18;;;;;;;;;;;;;;;7.36;92.95;96966.00;108101;1283;23013;-85
2024/02/15 02:35:45;;;;;;;;;;;;;;;7.37;92.88;96963.48;108026;1283;22538;-86
2024/02/15 02:38:12;;;;;;;;;;;;;;;7.40;92.99;96965.98;108018;1286;22553;-85
2024/02/15 02:40:38;;;;;;;;;;;;;;;7.42;92.93;96966.46;108054;1284;22521;-86
2024/02/15 02:43:05;;;;;;;;;;;;;;;7.43;92.85;96968.55;108175;1289;22522;-85
2024/02/15 02:45:34;;;;;;;;;;;;;;;7.45;92.78;96976.09;107964;1281;22569;-85
2024/02/15 02:48:01;;;;;;;;;;;;;;;7.47;92.77;96973.02;107949;1289;23113;-85
2024/02/15 02:50:27;;;;;;;;;;;;;;;7.46;92.90;96968.92;107994;1289;22528;-85
2024/02/15 02:52:53;;;;;;;;;;;;;;;7.43;93.12;96974.04;107938;1287;22517;-85
2024/02/15 02:55:20;;;;;;;;;;;;;;;7.42;93.48;96969.05;107924;1269;23201;-85
2024/02/15 02:57:47;;;;;;;;;;;;;;;7.37;93.45;96965.36;108066;1270;22521;-85
2024/02/15 03:00:16;;;;;;;;;;;;;;;7.35;93.76;96960.40;108079;1274;22514;-85
2024/02/15 03:02:45;;;;;;;;;;;;;;;7.31;93.66;96961.14;107958;1289;22539;-86
2024/02/15 03:05:12;;;;;;;;;;;;;;;7.28;93.77;96957.44;107870;1289;22571;-85
2024/02/15 03:07:40;;;;;;;;;;;;;;;7.28;93.81;96957.25;107945;1281;22511;-86
2024/02/15 03:10:09;;;;;;;;;;;;;;;7.26;94.45;96953.54;107932;1289;22550;-86
2024/02/15 03:12:36;;;;;;;;;;;;;;;7.21;94.67;96949.96;107923;1280;22930;-86
2024/02/15 03:15:03;;;;;;;;;;;;;;;7.24;94.78;96956.63;107851;1289;22527;-86
2024/02/15 03:17:31;;;;;;;;;;;;;;;7.27;94.84;96955.65;107878;1283;22548;-86
2024/02/15 03:19:58;;;;;;;;;;;;;;;7.30;94.74;96955.03;107900;1289;22518;-85
2024/02/15 03:22:25;;;;;;;;;;;;;;;7.33;94.68;96959.40;107877;1289;22575;-85
2024/02/15 03:24:52;;;;;;;;;;;;;;;7.34;94.98;96953.25;107957;1287;22563;-86
2024/02/15 03:27:23;;;;;;;;;;;;;;;7.34;95.44;96954.80;107872;1286;22545;-85
2024/02/15 03:29:49;;;;;;;;;;;;;;;7.35;95.12;96954.39;107969;1281;22518;-85
2024/02/15 03:32:17;;;;;;;;;;;;;;;7.35;95.28;96955.04;109475;1283;22428;-83
2024/02/15 03:34:43;;;;;;;;;;;;;;;7.35;95.05;96950.05;109474;1280;22413;-83
2024/02/15 03:37:10;;;;;;;;;;;;;;;7.36;95.17;96950.42;109483;1283;22399;-84
2024/02/15 03:39:37;;;;;;;;;;;;;;;7.36;95.34;96951.13;109302;1289;22425;-83
2024/02/15 03:42:04;;;;;;;;;;;;;;;7.35;95.16;96948.02;109431;1284;22473;-84
2024/02/15 03:44:31;;;;;;;;;;;;;;;7.34;95.01;96944.65;109653;1281;22440;-83
2024/02/15 03:46:58;;;;;;;;;;;;;;;7.36;94.76;96940.85;109319;1286;22418;-83
2024/02/15 03:49:25;;;;;;;;;;;;;;;7.39;94.84;96941.75;109465;1289;22423;-84
2024/02/15 03:51:51;;;;;;;;;;;;;;;7.41;94.43;96943.41;108373;1289;25481;-83
2024/02/15 03:54:18;;;;;;;;;;;;;;;7.43;94.49;96944.11;107909;1289;23008;-86
2024/02/15 03:56:51;;;;;;;;;;;;;;;7.43;94.42;96945.63;108048;1289;22524;-86
2024/02/15 03:59:21;;;;;;;;;;;;;;;7.43;94.56;96943.71;107924;1289;22585;-85
2024/02/15 04:01:47;;;;;;;;;;;;;;;7.45;94.59;96946.70;107929;1284;22522;-86
2024/02/15 04:04:14;;;;;;;;;;;;;;;7.44;94.63;96942.95;108033;1289;22563;-85
2024/02/15 04:06:42;;;;;;;;;;;;;;;7.43;94.52;96934.41;108017;1289;22571;-86
2024/02/15 04:09:10;;;;;;;;;;;;;;;7.41;94.52;96939.27;108028;1284;22510;-86
2024/02/15 04:11:37;;;;;;;;;;;;;;;7.42;94.55;96938.96;107935;1283;22544;-86
2024/02/15 04:14:04;;;;;;;;;;;;;;;7.42;94.67;96936.11;107908;1289;22559;-85
2024/02/15 04:16:31;;;;;;;;;;;;;;;7.41;94.74;96940.11;107940;1289;22528;-85
2024/02/15 04:18:58;;;;;;;;;;;;;;;7.43;94.69;96936.70;107912;1285;22539;-86
2024/02/15 04:21:26;;;;;;;;;;;;;;;7.44;94.55;96941.71;108067;1289;22514;-85
2024/02/15 04:23:53;;;;;;;;;;;;;;;7.45;94.50;96942.14;108024;1283;24865;-85
2024/02/15 04:26:20;;;;;;;;;;;;;;;7.43;94.76;96943.07;107963;1289;22539;-86
2024/02/15 04:28:52;;;;;;;;;;;;;;;7.39;94.80;96943.27;108059;1289;22584;-85
2024/02/15 04:31:20;;;;;;;;;;;;;;;7.38;95.30;96946.46;108058;1289;22565;-85
2024/02/15 04:33:48;;;;;;;;;;;;;;;7.33;95.41;96943.02;107928;1289;22561;-85
2024/02/15 04:36:19;;;;;;;;;;;;;;;7.28;95.47;96941.55;107952;1289;22520;-86
2024/02/15 04:38:46;;;;;;;;;;;;;;;7.28;95.70;96944.92;107938;1289;22581;-86
2024/02/15 04:41:12;;;;;;;;;;;;;;;7.28;95.82;96946.13;108057;1289;22528;-86
2024/02/15 04:43:40;;;;;;;;;;;;;;;7.28;95.64;96950.90;107828;1286;22548;-86
2024/02/15 04:46:09;;;;;;;;;;;;;;;7.30;95.67;96949.50;107931;1285;22518;-86
2024/02/15 04:48:35;;;;;;;;;;;;;;;7.30;95.91;96947.05;108102;1289;25350;-85
2024/02/15 04:51:02;;;;;;;;;;;;;;;7.30;96.12;96945.92;107925;1289;22524;-86
2024/02/15 04:53:32;;;;;;;;;;;;;;;7.30;96.38;96949.36;107895;1289;22545;-85
2024/02/15 04:56:00;;;;;;;;;;;;;;;7.30;96.35;96945.23;107921;1289;22548;-85
2024/02/15 04:58:28;;;;;;;;;;;;;;;7.29;96.34;96947.52;108040;1289;22588;-86
2024/02/15 05:00:59;;;;;;;;;;;;;;;7.28;96.55;96949.23;107949;1287;25258;-86
2024/02/15 05:03:25;;;;;;;;;;;;;;;7.29;96.62;96948.42;108027;1286;22559;-85
2024/02/15 05:05:52;;;;;;;;;;;;;;;7.33;96.44;96949.77;107942;1289;22572;-86
2024/02/15 05:08:19;;;;;;;;;;;;;;;7.34;96.68;96950.39;107928;1288;22514;-85
2024/02/15 05:10:45;;;;;;;;;;;;;;;7.31;96.64;96955.48;108048;1289;22540;-85
2024/02/15 05:13:12;;;;;;;;;;;;;;;7.31;96.62;96956.85;107927;1285;22527;-86
2024/02/15 05:15:39;;;;;;;;;;;;;;;7.34;96.67;96965.88;107987;1289;22547;-85
2024/02/15 05:18:08;;;;;;;;;;;;;;;7.34;96.89;96965.34;107945;1289;22536;-86
2024/02/15 05:20:34;;;;;;;;;;;;;;;7.35;96.53;96968.35;107998;1289;22547;-86
2024/02/15 05:23:01;;;;;;;;;;;;;;;7.38;96.49;96970.11;108099;1284;22539;-86
2024/02/15 05:25:27;;;;;;;;;;;;;;;7.41;96.62;96968.30;108119;1289;24327;-85
2024/02/15 05:27:54;;;;;;;;;;;;;;;7.41;96.72;96970.82;107929;1289;22601;-85
2024/02/15 05:30:20;;;;;;;;;;;;;;;7.42;96.34;96976.90;108077;1289;22517;-85
2024/02/15 05:32:47;;;;;;;;;;;;;;;7.46;96.24;96974.28;108024;1289;22548;-85
2024/02/15 05:35:14;;;;;;;;;;;;;;;7.47;96.51;96970.90;108055;1289;22547;-85
2024/02/15 05:37:41;;;;;;;;;;;;;;;7.43;96.73;96971.99;108046;1271;22539;-85
2024/02/15 05:40:14;;;;;;;;;;;;;;;7.40;96.73;96975.98;108074;1283;22571;-86
2024/02/15 05:42:47;;;;;;;;;;;;;;;7.35;96.98;96978.69;108089;1285;22520;-86
2024/02/15 05:45:26;;;;;;;;;;;;;;;7.35;96.93;96978.52;107940;1289;23240;-85
2024/02/15 05:47:53;;;;;;;;;;;;;;;7.36;97.02;96982.86;108040;1289;22526;-86
2024/02/15 05:50:21;;;;;;;;;;;;;;;7.37;97.33;96980.90;108080;1286;22517;-86
2024/02/15 05:52:47;;;;;;;;;;;;;;;7.37;97.32;96982.80;108073;1273;22530;-86
2024/02/15 05:55:16;;;;;;;;;;;;;;;7.39;97.45;96983.47;108050;1266;22514;-85
2024/02/15 05:57:43;;;;;;;;;;;;;;;7.39;97.01;96984.98;108076;1271;22528;-85
2024/02/15 06:00:10;;;;;;;;;;;;;;;7.43;97.33;96987.24;108083;1286;22530;-86
2024/02/15 06:02:36;;;;;;;;;;;;;;;7.43;97.05;96986.99;107904;1289;22553;-85
2024/02/15 06:05:04;;;;;;;;;;;;;;;7.44;96.93;96987.61;108024;1289;22592;-85
2024/02/15 06:07:34;;;;;;;;;;;;;;;7.43;97.06;96992.33;107904;1289;25364;-85
2024/02/15 06:10:04;;;;;;;;;;;;;;;7.43;97.13;96995.30;107924;1289;22511;-85
2024/02/15 06:12:31;;;;;;;;;;;;;;;7.42;96.99;96996.23;107900;1289;22532;-85
2024/02/15 06:14:58;;;;;;;;;;;;;;;7.44;96.92;97000.87;108031;1283;22522;-85
2024/02/15 06:17:24;;;;;;;;;;;;;;;7.45;96.63;97003.48;107946;1287;22513;-86
2024/02/15 06:19:51;;;;;;;;;;;;;;;7.48;97.16;97007.34;108087;1286;22546;-85
2024/02/15 06:22:17;;;;;;;;;;;;;;;7.51;97.04;97008.84;108040;1289;22529;-85
2024/02/15 06:24:44;;;;;;;;;;;;;;;7.52;97.15;97012.86;108086;1289;26327;-85
2024/02/15 06:27:11;;;;;;;;;;;;;;;7.53;97.27;97013.45;107963;1289;22545;-85
2024/02/15 06:40:45;;;;;;;;;;;;;;;7.69;96.70;97024.91;108104;1289;22549;-86
2024/02/15 06:43:12;;;;;;;;;;;;;;;7.73;96.83;97029.14;107970;1284;23388;-86
2024/02/15 06:45:44;;;;;;;;;;;;;;;7.77;96.78;97029.10;108113;1286;22553;-86
2024/02/15 06:48:11;;;;;;;;;;;;;;;7.82;97.05;97032.17;108090;1284;22543;-85
2024/02/15 06:50:37;;;;;;;;;;;;;;;7.86;97.49;97033.91;107940;1289;22545;-85
2024/02/15 06:53:04;;;;;;;;;;;;;;;7.88;96.91;97031.29;107787;1289;24308;-86
2024/02/15 06:55:30;;;;;;;;;;;;;;;7.92;96.23;97029.14;108072;1289;22525;-86
2024/02/15 06:57:57;;;;;;;;;;;;;;;7.95;96.39;97032.86;107804;1289;23121;-85
2024/02/15 07:00:24;;;;;;;;;;;;;;;7.96;95.86;97034.29;107931;1289;22518;-85
2024/02/15 07:02:51;;;;;;;;;;;;;;;7.96;95.28;97031.76;107927;1289;22534;-85
2024/02/15 07:05:17;;;;;;;;;;;;;;;7.93;94.95;97033.45;107916;1288;22518;-85
2024/02/15 07:07:44;;;;;;;;;;;;;;;7.91;94.75;97034.46;107926;1289;25407;-85
2024/02/15 07:10:10;;;;;;;;;;;;;;;7.89;94.80;97033.84;107826;1287;25300;-85
2024/02/15 07:12:37;;;;;;;;;;;;;;;7.86;94.94;97032.69;107933;1284;22539;-85
2024/02/15 07:15:06;;;;;;;;;;;;;;;7.84;95.11;97038.59;108000;1282;22531;-85
2024/02/15 07:17:33;;;;;;;;;;;;;;;7.79;95.05;97034.55;107901;1289;22532;-86
2024/02/15 07:19:59;;;;;;;;;;;;;;;7.75;95.12;97035.59;107962;1284;22528;-85
2024/02/15 07:22:25;;;;;;;;;;;;;;;7.74;95.51;97035.73;108051;1283;22539;-85
2024/02/15 07:24:52;;;;;;;;;;;;;;;7.74;95.15;97036.55;107955;1284;23146;-86
2024/02/15 07:27:18;;;;;;;;;;;;;;;7.74;95.10;97039.55;107830;1287;22571;-85
2024/02/15 07:29:45;;;;;;;;;;;;;;;7.76;95.33;97036.21;107953;1289;25341;-85
2024/02/15 07:32:12;;;;;;;;;;;;;;;7.78;95.52;97039.14;107917;1289;23820;-85
2024/02/15 07:34:38;;;;;;;;;;;;;;;7.78;95.93;97042.38;107952;1289;22532;-85
2024/02/15 07:37:06;;;;;;;;;;;;;;;7.77;96.04;97040.91;108077;1289;26598;-85
2024/02/15 07:39:33;;;;;;;;;;;;;;;7.77;95.70;97042.36;107921;1289;22529;-86
2024/02/15 07:41:59;;;;;;;;;;;;;;;7.77;95.48;97043.14;107920;1289;23352;-85
2024/02/15 07:44:29;;;;;;;;;;;;;;;7.81;95.34;97044.60;107970;1289;22529;-85
2024/02/15 07:47:00;;;;;;;;;;;;;;;7.86;95.98;97045.79;107907;1289;23534;-85
2024/02/15 07:49:27;;;;;;;;;;;;;;;7.93;95.91;97041.53;107928;1289;22578;-85
2024/02/15 07:51:53;;;;;;;;;;;;;;;8.00;96.48;97040.67;107917;1289;24634;-85
2024/02/15 07:54:22;;;;;;;;;;;;;;;8.07;96.94;97040.62;107917;1289;22557;-85
2024/02/15 07:56:49;;;;;;;;;;;;;;;8.17;95.96;97039.70;107847;1289;22603;-85
2024/02/15 07:59:18;;;;;;;;;;;;;;;8.26;95.59;97046.00;107913;1289;22543;-85
2024/02/15 08:01:47;;;;;;;;;;;;;;;8.35;95.45;97044.10;108036;1273;22546;-85
2024/02/15 08:04:13;;;;;;;;;;;;;;;8.43;94.65;97046.09;107970;1289;24637;-84
2024/02/15 08:06:41;;;;;;;;;;;;;;;8.50;94.24;97043.71;107863;1290;22571;-85
2024/02/15 08:09:13;;;;;;;;;;;;;;;8.55;93.59;97042.53;107925;1290;22518;-85
2024/02/15 08:11:40;;;;;;;;;;;;;;;8.57;93.47;97042.07;108051;1283;22543;-85
2024/02/15 08:14:10;;;;;;;;;;;;;;;8.59;93.05;97039.97;107953;1289;22541;-85
2024/02/15 08:16:37;;;;;;;;;;;;;;;8.61;93.26;97044.15;107928;1288;22708;-85
2024/02/15 08:19:05;;;;;;;;;;;;;;;8.62;93.21;97040.36;107853;1286;22525;-85
2024/02/15 08:21:36;;;;;;;;;;;;;;;8.63;92.35;97036.64;107849;1289;22537;-85
2024/02/15 08:24:05;;;;;;;;;;;;;;;8.64;92.64;97035.73;107957;1289;26193;-86
2024/02/15 08:26:38;;;;;;;;;;;;;;;8.65;91.77;97038.20;107925;1273;22524;-86
2024/02/15 08:29:06;;;;;;;;;;;;;;;8.66;91.82;97037.76;107939;1280;22589;-85
2024/02/15 08:31:33;;;;;;;;;;;;;;;8.69;91.71;97035.40;108074;1283;22530;-86
2024/02/15 08:34:01;;;;;;;;;;;;;;;8.71;91.32;97035.13;107933;1289;22560;-86
2024/02/15 08:36:30;;;;;;;;;;;;;;;8.73;90.85;97033.09;107940;1283;22557;-84
2024/02/15 08:38:56;;;;;;;;;;;;;;;8.72;90.67;97036.23;107952;1289;22545;-85
2024/02/15 08:41:26;;;;;;;;;;;;;;;8.71;90.17;97035.28;107866;1290;22673;-85
2024/02/15 08:43:53;;;;;;;;;;;;;;;8.68;90.43;97035.50;107924;1289;25286;-84
2024/02/15 08:46:24;;;;;;;;;;;;;;;8.63;90.56;97032.85;107937;1289;22527;-84
2024/02/15 08:48:51;;;;;;;;;;;;;;;8.63;90.87;97036.19;108068;1289;22574;-84
2024/02/15 08:51:20;;;;;;;;;;;;;;;8.60;90.55;97033.98;107903;1289;22523;-84
2024/02/15 08:53:47;;;;;;;;;;;;;;;8.57;90.76;97034.33;107906;1289;22521;-85
2024/02/15 08:56:14;;;;;;;;;;;;;;;8.55;90.63;97034.25;108070;1289;22532;-85
2024/02/15 08:58:42;;;;;;;;;;;;;;;8.51;90.51;97038.19;107923;1289;22777;-85
2024/02/15 09:01:09;;;;;;;;;;;;;;;8.52;90.87;97040.04;107830;1283;25414;-85
2024/02/15 09:03:36;;;;;;;;;;;;;;;8.53;90.69;97039.88;108075;1289;22577;-84
2024/02/15 09:06:03;;;;;;;;;;;;;;;8.58;90.94;97031.19;108021;1289;23097;-85
2024/02/15 09:08:30;;;;;;;;;;;;;;;8.61;90.82;97035.12;108000;1283;22521;-85
2024/02/15 09:10:58;;;;;;;;;;;;;;;8.64;90.86;97031.92;107926;1283;22990;-85
2024/02/15 09:13:24;;;;;;;;;;;;;;;8.68;90.97;97034.27;107922;1289;22544;-84
2024/02/15 09:15:50;;;;;;;;;;;;;;;8.72;91.19;97036.06;108047;1289;22557;-85
2024/02/15 09:18:22;;;;;;;;;;;;;;;8.76;90.93;97036.63;107872;1282;22518;-85
2024/02/15 09:20:55;;;;;;;;;;;;;;;8.77;90.97;97036.86;109391;1281;192234;-85
2024/02/15 09:23:25;;;;;;;;;;;;;;;8.78;90.47;97037.06;108783;1289;22520;-85
2024/02/15 09:25:51;;;;;;;;;;;;;;;8.78;90.22;97038.11;107936;1289;22574;-85
2024/02/15 09:28:24;;;;;;;;;;;;;;;8.81;90.07;97040.60;108080;1289;22517;-85
2024/02/15 09:30:59;;;;;;;;;;;;;;;8.82;89.76;97044.59;107950;1289;22579;-85
2024/02/15 09:33:26;;;;;;;;;;;;;;;8.84;90.08;97035.75;108061;1289;22537;-84
2024/02/15 09:35:55;;;;;;;;;;;;;;;8.89;90.50;97039.23;107825;1289;22545;-85
2024/02/15 09:38:21;;;;;;;;;;;;;;;8.93;90.12;97036.67;107956;1284;22518;-85
2024/02/15 09:40:51;;;;;;;;;;;;;;;8.94;89.62;97036.27;107951;1282;25215;-84
2024/02/15 09:43:17;;;;;;;;;;;;;;;8.93;89.44;97035.84;107952;1289;22640;-85
2024/02/15 09:45:44;;;;;;;;;;;;;;;8.93;89.80;97036.35;108056;1289;22536;-85
2024/02/15 09:48:10;;;;;;;;;;;;;;;8.96;90.05;97038.38;107940;1289;22516;-85
2024/02/15 09:50:36;;;;;;;;;;;;;;;9.01;89.80;97034.72;107909;1283;22572;-85
2024/02/15 09:53:03;;;;;;;;;;;;;;;9.11;89.96;97033.59;107886;1283;22581;-85
2024/02/15 09:55:29;;;;;;;;;;;;;;;9.20;89.56;97029.70;107921;1290;22547;-85
2024/02/15 09:57:56;;;;;;;;;;;;;;;9.29;89.75;97034.05;107941;1289;22578;-85
2024/02/15 10:00:23;;;;;;;;;;;;;;;9.40;89.46;97032.41;108037;1284;22521;-85
2024/02/15 10:02:52;;;;;;;;;;;;;;;9.49;89.21;97032.58;108076;1283;22556;-84
2024/02/15 10:05:19;;;;;;;;;;;;;;;9.52;88.67;97029.76;107950;1287;22536;-87
2024/02/15 10:07:45;;;;;;;;;;;;;;;9.53;88.22;97029.66;107915;1286;22545;-86
2024/02/15 10:10:19;;;;;;;;;;;;;;;9.56;88.71;97028.73;107912;1283;22538;-86
2024/02/15 10:12:51;;;;;;;;;;;;;;;9.61;88.60;97026.77;107934;1289;22525;-86
2024/02/15 10:15:30;;;;;;;;;;;;;;;9.69;88.70;97023.39;107955;1289;22525;-86
2024/02/15 10:17:58;;;;;;;;;;;;;;;9.78;88.71;97020.16;108012;1283;25221;-86
2024/02/15 10:20:25;;;;;;;;;;;;;;;9.88;88.48;97020.95;107961;1283;22525;-86
2024/02/15 10:22:58;;;;;;;;;;;;;;;10.01;88.39;97022.61;107958;1289;22560;-86
2024/02/15 10:25:26;;;;;;;;;;;;;;;10.10;87.28;97025.21;108068;1287;24231;-86
2024/02/15 10:28:08;;;;;;;;;;;;;;;10.13;87.03;97022.52;107960;1289;25217;-86
2024/02/15 10:30:35;;;;;;;;;;;;;;;10.16;87.17;97020.59;107945;1280;22574;-86
2024/02/15 10:33:01;;;;;;;;;;;;;;;10.18;87.08;97024.02;107934;1283;22541;-86
2024/02/15 10:35:28;;;;;;;;;;;;;;;10.18;86.56;97025.04;107921;1289;22525;-86
2024/02/15 10:38:04;;;;;;;;;;;;;;;10.19;85.60;97023.41;107946;1288;22618;-86
2024/02/15 10:40:30;;;;;;;;;;;;;;;10.19;86.18;97020.46;107905;1289;23109;-86
2024/02/15 10:42:57;;;;;;;;;;;;;;;10.26;87.06;97015.09;107917;1285;22557;-86
2024/02/15 10:45:24;;;;;;;;;;;;;;;10.37;86.79;97011.34;107923;1280;22521;-87
2024/02/15 10:47:52;;;;;;;;;;;;;;;10.46;86.54;97011.89;107953;1283;23316;-87
2024/02/15 10:50:18;;;;;;;;;;;;;;;10.55;86.67;97007.09;108071;1289;24233;-87
2024/02/15 10:52:48;;;;;;;;;;;;;;;10.64;86.25;97006.49;107911;1283;22541;-87
2024/02/15 10:55:16;;;;;;;;;;;;;;;10.70;85.81;97005.27;107940;1289;25349;-87
2024/02/15 10:57:44;;;;;;;;;;;;;;;10.76;85.86;97001.14;107966;1289;22532;-86
2024/02/15 11:00:13;;;;;;;;;;;;;;;10.85;85.10;97004.21;107951;1289;25357;-87
2024/02/15 11:02:45;;;;;;;;;;;;;;;10.94;85.27;97003.77;107987;1289;22514;-87
2024/02/15 11:05:14;;;;;;;;;;;;;;;11.00;84.57;97004.64;107883;1281;23304;-87
2024/02/15 11:07:40;;;;;;;;;;;;;;;11.06;83.67;97003.76;107990;1289;22578;-87
2024/02/15 11:10:10;;;;;;;;;;;;;;;11.06;83.75;97000.59;107970;1283;22518;-86
2024/02/15 11:12:37;;;;;;;;;;;;;;;11.04;83.44;96997.73;108046;1286;22530;-87
2024/02/15 11:15:06;;;;;;;;;;;;;;;11.04;83.29;96995.61;107965;1289;24357;-87
2024/02/15 11:17:39;;;;;;;;;;;;;;;11.09;83.32;96993.68;107961;1279;22565;-87
2024/02/15 11:20:10;;;;;;;;;;;;;;;11.17;83.32;96996.66;108083;1289;22650;-87
2024/02/15 11:22:37;;;;;;;;;;;;;;;11.21;83.09;96994.95;107855;1286;22534;-87
2024/02/15 11:25:08;;;;;;;;;;;;;;;11.21;82.87;96993.25;107951;1289;22598;-87
2024/02/15 11:27:37;;;;;;;;;;;;;;;11.18;82.83;96990.45;108075;1289;25398;-87
2024/02/15 11:30:09;;;;;;;;;;;;;;;11.14;82.25;96990.92;108078;1285;22523;-86
2024/02/15 11:32:47;;;;;;;;;;;;;;;11.14;82.58;96990.21;109526;1282;23187;-85
2024/02/15 11:35:14;;;;;;;;;;;;;;;11.15;82.32;96990.40;109492;1281;22971;-85
2024/02/15 11:37:52;;;;;;;;;;;;;;;11.14;81.95;96982.97;109480;1289;22419;-85
2024/02/15 11:40:22;;;;;;;;;;;;;;;11.12;81.86;96979.82;109596;1284;22434;-86
2024/02/15 11:42:59;;;;;;;;;;;;;;;11.11;81.66;96976.55;108022;1286;24234;-84
2024/02/15 11:45:32;;;;;;;;;;;;;;;11.14;82.16;96978.64;107940;1290;22578;-84
2024/02/15 11:48:02;;;;;;;;;;;;;;;11.18;81.37;96971.91;108814;1276;22520;-85
2024/02/15 11:50:28;;;;;;;;;;;;;;;11.20;81.06;96973.42;107945;1279;22716;-84
2024/02/15 11:53:05;;;;;;;;;;;;;;;11.19;81.30;96968.20;107887;1290;25398;-88
2024/02/15 11:55:32;;;;;;;;;;;;;;;11.20;81.03;96963.99;107950;1289;22542;-87
2024/02/15 11:58:16;;;;;;;;;;;;;;;11.22;79.98;96962.23;107893;1283;22781;-87
2024/02/15 12:20:07;;;;;;;;;;;;;;;11.61;79.46;96945.56;107971;1276;22571;-87
2024/02/15 12:22:35;;;;;;;;;;;;;;;11.60;78.96;96947.43;109472;1290;22450;-85
2024/02/15 12:25:05;;;;;;;;;;;;;;;11.61;79.55;96946.29;109407;1284;22444;-85
2024/02/15 12:27:34;;;;;;;;;;;;;;;11.64;79.47;96946.45;109465;1290;22455;-85
2024/02/15 12:30:00;;;;;;;;;;;;;;;11.64;79.29;96942.81;109287;1290;22420;-85
2024/02/15 12:32:27;;;;;;;;;;;;;;;11.64;79.25;96939.98;109549;1283;22400;-85
2024/02/15 12:35:08;;;;;;;;;;;;;;;11.68;78.56;96936.75;109568;1283;22409;-86
2024/02/15 12:37:35;;;;;;;;;;;;;;;11.73;78.93;96937.18;109470;1290;22523;-86
2024/02/15 12:40:16;;;;;;;;;;;;;;;11.77;78.92;96938.55;108144;1290;22524;-84
2024/02/15 12:42:49;;;;;;;;;;;;;;;11.84;79.01;96938.41;107941;1284;25616;-84
2024/02/15 12:45:21;;;;;;;;;;;;;;;11.86;78.48;96935.36;107850;1290;22525;-84
2024/02/15 12:47:51;;;;;;;;;;;;;;;11.86;78.13;96936.07;107935;1290;22553;-84
2024/02/15 12:50:21;;;;;;;;;;;;;;;11.83;77.51;96936.10;107950;1283;22527;-84
2024/02/15 12:52:49;;;;;;;;;;;;;;;11.82;77.31;96932.21;107934;1290;23279;-84
2024/02/15 12:55:16;;;;;;;;;;;;;;;11.83;77.70;96933.11;108032;1290;22746;-85
2024/02/15 12:57:50;;;;;;;;;;;;;;;11.83;77.56;96929.37;107968;1290;25318;-84
2024/02/15 13:46:21;;;;;;;;;;;;;;;11.96;76.74;96937.48;109593;1280;22465;-83
2024/02/15 13:48:52;;;;;;;;;;;;;;;11.93;76.92;96934.63;109668;1282;22540;-84
2024/02/15 13:51:19;;;;;;;;;;;;;;;11.91;76.72;96936.58;109640;1283;22424;-83
2024/02/15 13:53:45;;;;;;;;;;;;;;;11.90;77.52;96932.84;108613;1288;24398;-83
2024/02/15 13:56:12;;;;;;;;;;;;;;;11.91;78.28;96932.57;107975;1288;25369;-83
2024/02/15 13:58:38;;;;;;;;;;;;;;;11.93;78.83;96931.66;108073;1288;22586;-83
2024/02/15 14:01:06;;;;;;;;;;;;;;;11.91;77.73;96931.89;107934;1288;22520;-83
2024/02/15 14:03:33;;;;;;;;;;;;;;;11.86;77.57;96932.47;108034;1288;22514;-83
2024/02/15 14:06:00;;;;;;;;;;;;;;;11.84;78.30;96936.04;108180;1282;22490;-83